createdAt,value
2023-05-13T00:01:41.115Z,10.50
2023-05-13T00:04:10.758Z,10.33
2023-05-13T00:06:38.987Z,11.00
2023-05-13T00:09:07.029Z,10.70
2023-05-13T00:11:35.919Z,11.50
2023-05-13T00:14:04.072Z,11.07
2023-05-13T00:16:32.097Z,11.07
2023-05-13T00:19:00.144Z,11.03
2023-05-13T00:21:29.580Z,11.40
2023-05-13T00:23:57.663Z,9.77
2023-05-13T00:26:25.636Z,11.27
2023-05-13T00:28:53.539Z,12.67
2023-05-13T00:31:21.677Z,10.80
2023-05-13T00:33:49.656Z,11.53
2023-05-13T00:36:17.607Z,10.67
2023-05-13T00:38:47.140Z,10.60
2023-05-13T00:41:15.102Z,11.23
2023-05-13T00:43:43.038Z,10.53
2023-05-13T00:46:11.046Z,10.90
2023-05-13T00:48:39.636Z,11.60
2023-05-13T00:51:07.777Z,11.97
2023-05-13T00:53:36.034Z,11.67
2023-05-13T00:56:06.074Z,11.80
2023-05-13T00:58:34.040Z,11.30
2023-05-13T01:01:10.923Z,11.77
2023-05-13T01:03:47.211Z,12.17
2023-05-13T01:06:18.223Z,12.10
2023-05-13T01:08:53.445Z,11.83
2023-05-13T01:11:28.034Z,12.13
2023-05-13T01:14:03.168Z,12.20
2023-05-13T01:16:36.252Z,12.20
2023-05-13T01:19:23.044Z,11.93
2023-05-13T01:21:55.112Z,12.13
2023-05-13T01:24:23.135Z,12.70
2023-05-13T01:26:51.230Z,12.57
2023-05-13T01:29:19.372Z,13.43
2023-05-13T01:31:48.808Z,13.40
2023-05-13T01:34:16.861Z,13.00
2023-05-13T01:36:45.301Z,14.70
2023-05-13T01:39:14.936Z,12.10
2023-05-13T01:41:42.974Z,11.97
2023-05-13T01:44:10.908Z,13.63
2023-05-13T01:46:39.328Z,13.13
2023-05-13T01:49:09.408Z,13.63
2023-05-13T01:51:37.921Z,12.80
2023-05-13T01:54:06.186Z,12.80
2023-05-13T01:56:36.013Z,12.97
2023-05-13T01:59:04.098Z,14.77
2023-05-13T02:01:32.063Z,13.73
2023-05-13T02:04:00.433Z,15.00
2023-05-13T02:06:28.797Z,12.87
2023-05-13T02:08:56.755Z,13.30
2023-05-13T02:11:24.682Z,13.47
2023-05-13T02:13:53.941Z,13.40
2023-05-13T02:16:21.936Z,13.50
2023-05-13T02:18:49.913Z,13.20
2023-05-13T02:21:17.852Z,15.93
2023-05-13T02:23:45.885Z,13.90
2023-05-13T02:26:13.822Z,14.33
2023-05-13T02:28:41.777Z,14.00
2023-05-13T02:31:11.101Z,13.67
2023-05-13T02:33:39.017Z,14.77
2023-05-13T02:36:07.234Z,15.10
2023-05-13T02:38:35.175Z,14.47
2023-05-13T02:41:03.156Z,14.70
2023-05-13T02:43:31.166Z,13.97
2023-05-13T02:45:59.178Z,14.07
2023-05-13T02:48:28.428Z,15.23
2023-05-13T02:50:56.456Z,14.37
2023-05-13T02:53:24.450Z,15.30
2023-05-13T02:55:52.411Z,14.90
2023-05-13T02:58:20.343Z,14.13
2023-05-13T03:00:48.256Z,16.30
2023-05-13T03:03:16.262Z,16.10
2023-05-13T03:05:45.616Z,15.77
2023-05-13T03:08:13.559Z,15.73
2023-05-13T03:10:41.542Z,16.37
2023-05-13T03:13:09.555Z,15.53
2023-05-13T03:15:37.596Z,15.70
2023-05-13T03:18:05.764Z,15.93
2023-05-13T03:20:33.722Z,17.63
2023-05-13T03:23:03.042Z,15.73
2023-05-13T03:25:31.357Z,16.17
2023-05-13T03:27:59.456Z,15.77
2023-05-13T03:30:27.574Z,16.10
2023-05-13T03:32:56.311Z,16.53
2023-05-13T03:35:24.294Z,16.17
2023-05-13T03:37:52.580Z,17.30
2023-05-13T03:40:22.129Z,16.30
2023-05-13T03:42:52.801Z,17.53
2023-05-13T03:45:20.728Z,16.97
2023-05-13T03:47:48.699Z,17.20
2023-05-13T03:50:17.236Z,18.20
2023-05-13T03:52:47.114Z,18.43
2023-05-13T03:55:15.776Z,19.30
2023-05-13T03:57:50.518Z,19.40
2023-05-13T04:00:18.943Z,18.27
2023-05-13T04:02:47.045Z,18.63
2023-05-13T04:05:15.259Z,18.70
2023-05-13T04:07:43.199Z,19.07
2023-05-13T04:10:15.241Z,19.23
2023-05-13T04:12:44.983Z,20.30
2023-05-13T04:15:13.102Z,19.00
2023-05-13T04:17:41.113Z,19.50
2023-05-13T04:20:09.987Z,18.70
2023-05-13T04:22:38.006Z,19.30
2023-05-13T04:25:06.724Z,18.87
2023-05-13T04:27:34.676Z,18.30
2023-05-13T04:30:04.130Z,20.23
2023-05-13T04:32:32.120Z,17.67
2023-05-13T04:35:00.080Z,18.13
2023-05-13T04:37:28.288Z,17.60
2023-05-13T04:39:56.237Z,20.20
2023-05-13T04:42:24.181Z,18.73
2023-05-13T04:44:52.129Z,20.17
2023-05-13T04:47:21.529Z,18.90
2023-05-13T04:49:49.479Z,17.77
2023-05-13T04:52:17.871Z,18.57
2023-05-13T04:54:45.879Z,18.57
2023-05-13T04:57:13.790Z,18.53
2023-05-13T04:59:41.730Z,18.37
2023-05-13T05:02:09.634Z,17.43
2023-05-13T05:04:38.936Z,18.47
2023-05-13T05:07:06.977Z,19.13
2023-05-13T05:09:34.961Z,18.60
2023-05-13T05:12:02.934Z,19.20
2023-05-13T05:14:31.736Z,18.97
2023-05-13T05:16:59.732Z,17.60
2023-05-13T05:19:27.873Z,18.23
2023-05-13T05:21:57.323Z,17.20
2023-05-13T05:24:25.330Z,15.93
2023-05-13T05:26:53.321Z,17.70
2023-05-13T05:29:21.369Z,17.43
2023-05-13T05:31:49.634Z,17.60
2023-05-13T05:34:19.598Z,17.23
2023-05-13T05:36:47.580Z,15.90
2023-05-13T05:39:16.858Z,17.27
2023-05-13T05:41:44.768Z,15.80
2023-05-13T05:44:14.051Z,17.10
2023-05-13T05:46:41.974Z,15.40
2023-05-13T05:49:09.882Z,14.97
2023-05-13T05:51:37.839Z,14.77
2023-05-13T05:54:05.922Z,14.67
2023-05-13T05:56:35.263Z,14.03
2023-05-13T05:59:03.183Z,14.17
2023-05-13T06:01:33.731Z,14.93
2023-05-13T06:04:01.824Z,15.43
2023-05-13T06:06:29.943Z,13.20
2023-05-13T06:08:57.886Z,12.53
2023-05-13T06:11:25.928Z,13.40
2023-05-13T06:13:57.443Z,12.07
2023-05-13T06:16:25.538Z,12.10
2023-05-13T06:18:53.509Z,11.80
2023-05-13T06:21:21.463Z,12.07
2023-05-13T06:23:49.510Z,11.27
2023-05-13T06:26:17.422Z,11.70
2023-05-13T06:28:45.393Z,11.57
2023-05-13T06:31:14.758Z,10.80
2023-05-13T06:33:42.670Z,11.37
2023-05-13T06:36:10.714Z,10.83
2023-05-13T06:38:38.616Z,10.17
2023-05-13T06:41:07.086Z,10.37
2023-05-13T06:43:35.043Z,10.73
2023-05-13T06:46:03.163Z,10.67
2023-05-13T06:48:32.453Z,10.87
2023-05-13T06:51:00.356Z,9.10
2023-05-13T06:53:28.298Z,9.73
2023-05-13T06:55:56.426Z,9.23
2023-05-13T06:58:24.430Z,9.53
2023-05-13T07:00:52.450Z,9.47
2023-05-13T07:03:20.407Z,8.30
2023-05-13T07:05:49.709Z,9.93
2023-05-13T07:08:18.100Z,8.43
2023-05-13T07:10:46.171Z,8.30
2023-05-13T07:13:14.291Z,7.27
2023-05-13T07:15:42.593Z,8.70
2023-05-13T07:18:10.593Z,8.03
2023-05-13T07:20:38.802Z,8.53
2023-05-13T07:23:08.098Z,7.97
2023-05-13T07:25:36.114Z,8.50
2023-05-13T07:28:04.226Z,8.83
2023-05-13T07:30:32.293Z,8.20
2023-05-13T07:33:00.324Z,7.23
2023-05-13T07:35:28.445Z,8.47
2023-05-13T07:37:56.373Z,9.10
2023-05-13T07:40:25.760Z,7.70
2023-05-13T07:42:53.889Z,7.93
2023-05-13T07:45:22.245Z,8.77
2023-05-13T07:47:50.398Z,8.50
2023-05-13T07:50:18.448Z,9.10
2023-05-13T07:52:48.973Z,8.87
2023-05-13T07:55:17.040Z,10.00
2023-05-13T07:57:46.397Z,8.37
2023-05-13T08:00:15.534Z,8.77
2023-05-13T08:02:44.177Z,8.03
2023-05-13T08:05:12.418Z,9.33
2023-05-13T08:07:40.457Z,7.90
2023-05-13T08:10:09.460Z,7.47
2023-05-13T08:12:37.442Z,7.33
2023-05-13T08:15:08.316Z,7.67
2023-05-13T08:17:36.357Z,6.83
2023-05-13T08:20:04.583Z,7.10
2023-05-13T08:22:32.524Z,7.10
2023-05-13T08:25:01.089Z,7.33
2023-05-13T08:27:29.094Z,6.33
2023-05-13T08:29:57.087Z,7.80
2023-05-13T08:32:26.524Z,7.23
2023-05-13T08:34:54.518Z,8.83
2023-05-13T08:37:22.526Z,7.63
2023-05-13T08:39:50.449Z,6.53
2023-05-13T08:42:21.659Z,6.20
2023-05-13T08:44:50.540Z,9.90
2023-05-13T08:47:28.801Z,7.70
2023-05-13T08:49:57.686Z,6.90
2023-05-13T08:52:26.222Z,6.67
2023-05-13T08:54:55.378Z,5.80
2023-05-13T08:57:23.294Z,6.70
2023-05-13T08:59:51.326Z,6.30
2023-05-13T09:02:19.415Z,6.90
2023-05-13T09:04:53.793Z,7.17
2023-05-13T09:07:22.233Z,6.40
2023-05-13T09:09:50.597Z,6.83
2023-05-13T09:12:53.918Z,5.70
2023-05-13T09:15:24.142Z,5.77
2023-05-13T09:17:53.563Z,6.73
2023-05-13T09:20:25.386Z,5.80
2023-05-13T09:22:55.182Z,6.53
2023-05-13T09:25:24.974Z,6.53
2023-05-13T09:27:57.654Z,5.90
2023-05-13T09:30:28.492Z,6.30
2023-05-13T09:33:08.626Z,6.93
2023-05-13T09:35:39.119Z,5.70
2023-05-13T09:38:18.163Z,5.83
2023-05-13T09:40:52.890Z,6.03
2023-05-13T09:43:22.154Z,6.90
2023-05-13T09:45:54.263Z,6.10
2023-05-13T09:48:22.760Z,6.13
2023-05-13T09:50:53.182Z,6.10
2023-05-13T09:53:21.637Z,6.00
2023-05-13T09:55:50.902Z,5.90
2023-05-13T09:58:20.123Z,5.37
2023-05-13T10:00:49.164Z,5.87
2023-05-13T10:03:17.469Z,6.03
2023-05-13T10:05:46.175Z,5.93
2023-05-13T10:08:15.817Z,5.50
2023-05-13T10:10:45.880Z,5.53
2023-05-13T10:13:16.465Z,6.70
2023-05-13T10:15:50.440Z,6.23
2023-05-13T10:18:19.695Z,5.70
2023-05-13T10:20:52.769Z,5.47
2023-05-13T10:23:23.736Z,5.87
2023-05-13T10:25:52.246Z,5.87
2023-05-13T10:28:20.322Z,6.53
2023-05-13T10:30:51.702Z,5.80
2023-05-13T10:33:19.895Z,5.80
2023-05-13T10:36:02.926Z,5.60
2023-05-13T10:38:45.026Z,5.60
2023-05-13T10:41:28.196Z,6.00
2023-05-13T10:43:58.673Z,5.73
2023-05-13T10:46:27.518Z,5.33
2023-05-13T10:48:59.210Z,5.80
2023-05-13T10:51:28.000Z,5.67
2023-05-13T10:53:59.188Z,5.57
2023-05-13T10:56:28.982Z,5.70
2023-05-13T10:59:01.307Z,5.30
2023-05-13T11:01:30.628Z,5.07
2023-05-13T11:04:01.112Z,5.13
2023-05-13T11:06:32.924Z,5.60
2023-05-13T11:09:02.557Z,6.83
2023-05-13T11:11:35.184Z,5.47
2023-05-13T11:14:16.383Z,7.63
2023-05-13T11:16:49.082Z,6.00
2023-05-13T11:19:22.502Z,6.60
2023-05-13T11:21:53.348Z,6.10
2023-05-13T11:24:23.479Z,6.47
2023-05-13T11:26:56.267Z,5.50
2023-05-13T11:29:32.072Z,6.43
2023-05-13T11:32:01.516Z,5.40
2023-05-13T11:34:30.121Z,6.27
2023-05-13T11:37:06.963Z,5.80
2023-05-13T11:39:37.102Z,6.40
2023-05-13T11:42:08.786Z,6.07
2023-05-13T11:44:37.624Z,6.97
2023-05-13T11:47:07.996Z,5.50
2023-05-13T11:49:40.430Z,5.70
2023-05-13T11:52:10.505Z,5.63
2023-05-13T11:54:48.648Z,5.63
2023-05-13T11:57:23.959Z,5.87
2023-05-13T11:59:53.693Z,5.87
2023-05-13T12:02:23.185Z,6.50
2023-05-13T12:04:52.666Z,5.07
2023-05-13T12:07:22.676Z,4.93
2023-05-13T12:09:52.320Z,5.40
2023-05-13T12:12:21.254Z,5.00
2023-05-13T12:14:51.027Z,4.83
2023-05-13T12:17:19.644Z,6.47
2023-05-13T12:20:10.982Z,5.83
2023-05-13T12:22:49.981Z,5.13
2023-05-13T12:25:41.767Z,5.10
2023-05-13T12:28:16.516Z,4.40
2023-05-13T12:30:51.834Z,4.60
2023-05-13T12:33:21.061Z,5.47
2023-05-13T12:35:50.709Z,5.03
2023-05-13T12:38:20.354Z,4.87
2023-05-13T12:40:50.146Z,4.37
2023-05-13T12:43:19.465Z,4.97
2023-05-13T12:45:52.835Z,4.57
2023-05-13T12:48:24.434Z,4.60
2023-05-13T12:50:52.559Z,5.60
2023-05-13T12:53:21.294Z,4.40
2023-05-13T12:55:50.663Z,3.83
2023-05-13T12:58:18.659Z,3.83
2023-05-13T13:00:47.130Z,4.43
2023-05-13T13:03:15.245Z,4.03
2023-05-13T13:05:43.278Z,3.60
2023-05-13T13:08:11.260Z,5.50
2023-05-13T13:10:39.145Z,4.80
2023-05-13T13:13:08.430Z,4.20
2023-05-13T13:15:36.354Z,4.50
2023-05-13T13:18:04.370Z,4.27
2023-05-13T13:20:32.374Z,4.80
2023-05-13T13:23:02.057Z,4.60
2023-05-13T13:25:30.050Z,19.33
2023-05-13T13:27:57.972Z,7.13
2023-05-13T13:30:27.261Z,4.90
2023-05-13T13:32:55.208Z,4.07
2023-05-13T13:35:23.312Z,5.93
2023-05-13T13:37:51.374Z,4.00
2023-05-13T13:40:19.803Z,4.60
2023-05-13T13:42:47.969Z,4.30
2023-05-13T13:45:15.902Z,3.87
2023-05-13T13:47:45.249Z,4.87
2023-05-13T13:50:13.258Z,4.10
2023-05-13T13:52:41.195Z,4.20
2023-05-13T13:55:11.618Z,5.07
2023-05-13T13:57:39.648Z,3.87
2023-05-13T14:00:08.904Z,3.73
2023-05-13T14:02:36.874Z,3.57
2023-05-13T14:05:07.073Z,4.23
2023-05-13T14:07:35.083Z,4.40
2023-05-13T14:10:03.065Z,8.70
2023-05-13T14:12:31.153Z,4.10
2023-05-13T14:14:59.853Z,4.53
2023-05-13T14:17:27.843Z,3.90
2023-05-13T14:19:56.090Z,4.60
2023-05-13T14:22:25.714Z,4.80
2023-05-13T14:24:53.931Z,3.77
2023-05-13T14:27:24.596Z,3.73
2023-05-13T14:29:52.764Z,4.20
2023-05-13T14:32:20.691Z,4.17
2023-05-13T14:34:48.611Z,4.00
2023-05-13T14:37:16.654Z,4.00
2023-05-13T14:39:47.721Z,4.40
2023-05-13T14:42:17.850Z,3.77
2023-05-13T14:44:46.133Z,4.17
2023-05-13T14:47:14.062Z,4.23
2023-05-13T14:49:41.979Z,5.10
2023-05-13T14:52:09.889Z,3.80
2023-05-13T14:54:38.242Z,3.63
2023-05-13T14:57:08.368Z,4.63
2023-05-13T14:59:36.455Z,4.20
2023-05-13T15:02:05.111Z,4.30
2023-05-13T15:04:33.034Z,4.40
2023-05-13T15:07:02.753Z,3.93
2023-05-13T15:09:30.667Z,4.00
2023-05-13T15:11:58.694Z,4.00
2023-05-13T15:14:28.303Z,4.40
2023-05-13T15:16:56.396Z,3.80
2023-05-13T15:19:24.370Z,4.17
2023-05-13T15:21:52.459Z,4.90
2023-05-13T15:24:20.551Z,4.10
2023-05-13T15:26:50.371Z,4.13
2023-05-13T15:29:18.369Z,4.23
2023-05-13T15:31:50.470Z,3.90
2023-05-13T15:34:18.402Z,4.17
2023-05-13T15:36:46.391Z,4.10
2023-05-13T15:39:14.391Z,4.23
2023-05-13T15:41:42.345Z,4.07
2023-05-13T15:44:10.315Z,3.93
2023-05-13T15:46:49.744Z,4.20
2023-05-13T15:49:17.838Z,4.60
2023-05-13T15:51:45.812Z,4.10
2023-05-13T15:54:14.049Z,3.80
2023-05-13T15:56:42.115Z,4.00
2023-05-13T15:59:10.054Z,4.27
2023-05-13T16:01:40.204Z,3.90
2023-05-13T16:04:09.621Z,3.60
2023-05-13T16:06:37.668Z,3.83
2023-05-13T16:09:05.636Z,4.30
2023-05-13T16:11:33.599Z,4.57
2023-05-13T16:14:01.837Z,6.37
2023-05-13T16:16:29.866Z,4.70
2023-05-13T16:18:58.597Z,5.57
2023-05-13T16:21:27.985Z,5.40
2023-05-13T16:23:55.977Z,4.47
2023-05-13T16:26:23.958Z,4.20
2023-05-13T16:28:51.867Z,4.47
2023-05-13T16:31:19.844Z,5.13
2023-05-13T16:33:47.757Z,5.23
2023-05-13T16:36:15.715Z,4.10
2023-05-13T16:38:46.507Z,4.50
2023-05-13T16:41:14.433Z,4.00
2023-05-13T16:43:42.354Z,4.83
2023-05-13T16:46:10.297Z,4.30
2023-05-13T16:48:38.260Z,4.67
2023-05-13T16:51:06.356Z,4.40
2023-05-13T16:53:34.575Z,4.20
2023-05-13T16:56:03.916Z,5.43
2023-05-13T16:58:31.816Z,4.70
2023-05-13T17:00:59.778Z,4.27
2023-05-13T17:03:27.905Z,4.10
2023-05-13T17:05:56.018Z,4.13
2023-05-13T17:08:24.422Z,4.40
2023-05-13T17:10:53.542Z,4.70
2023-05-13T17:13:22.843Z,3.87
2023-05-13T17:15:50.801Z,4.33
2023-05-13T17:18:18.709Z,4.77
2023-05-13T17:20:46.713Z,4.27
2023-05-13T17:23:17.119Z,6.10
2023-05-13T17:25:45.123Z,4.03
2023-05-13T17:28:13.051Z,5.53
2023-05-13T17:30:42.386Z,4.27
2023-05-13T17:33:10.368Z,5.03
2023-05-13T17:35:38.616Z,4.20
2023-05-13T17:38:06.575Z,5.63
2023-05-13T17:40:34.736Z,4.50
2023-05-13T17:43:03.537Z,4.23
2023-05-13T17:45:35.561Z,4.03
2023-05-13T17:48:05.551Z,3.97
2023-05-13T17:50:33.537Z,4.00
2023-05-13T17:53:01.614Z,4.50
2023-05-13T17:55:29.554Z,4.80
2023-05-13T17:57:58.936Z,4.93
2023-05-13T18:00:27.820Z,4.57
2023-05-13T18:02:55.867Z,4.10
2023-05-13T18:05:25.348Z,6.60
2023-05-13T18:07:53.365Z,4.90
2023-05-13T18:10:21.557Z,5.03
2023-05-13T18:12:51.666Z,4.73
2023-05-13T18:15:19.759Z,4.80
2023-05-13T18:17:47.745Z,6.40
2023-05-13T18:20:15.870Z,4.70
2023-05-13T18:22:45.166Z,8.33
2023-05-13T18:25:13.162Z,4.47
2023-05-13T18:27:41.088Z,6.60
2023-05-13T18:30:09.869Z,4.60
2023-05-13T18:32:37.821Z,5.17
2023-05-13T18:35:06.652Z,5.20
2023-05-13T18:37:34.644Z,4.80
2023-05-13T18:40:04.057Z,5.03
2023-05-13T18:42:31.997Z,4.70
2023-05-13T18:45:00.106Z,5.43
2023-05-13T18:47:28.118Z,4.70
2023-05-13T18:49:56.290Z,5.63
2023-05-13T18:52:24.227Z,5.13
2023-05-13T18:54:52.289Z,4.43
2023-05-13T18:57:21.678Z,5.00
2023-05-13T18:59:49.667Z,4.80
2023-05-13T19:02:17.909Z,4.30
2023-05-13T19:04:45.927Z,5.30
2023-05-13T19:07:13.877Z,5.53
2023-05-13T19:09:41.993Z,5.00
2023-05-13T19:12:10.093Z,4.90
2023-05-13T19:14:39.400Z,5.10
2023-05-13T19:17:07.437Z,5.10
2023-05-13T19:19:35.431Z,5.60
2023-05-13T19:22:03.399Z,5.30
2023-05-13T19:24:31.325Z,5.63
2023-05-13T19:26:59.461Z,5.50
2023-05-13T19:29:27.498Z,5.30
2023-05-13T19:31:56.834Z,5.70
2023-05-13T19:34:24.778Z,5.27
2023-05-13T19:36:52.851Z,5.50
2023-05-13T19:39:20.793Z,5.23
2023-05-13T19:41:48.758Z,5.23
2023-05-13T19:44:16.797Z,5.70
2023-05-13T19:46:44.884Z,5.30
2023-05-13T19:49:14.264Z,7.40
2023-05-13T19:51:42.329Z,6.03
2023-05-13T19:54:10.910Z,5.83
2023-05-13T19:56:41.236Z,5.97
2023-05-13T19:59:09.639Z,6.13
2023-05-13T20:01:37.746Z,5.60
2023-05-13T20:04:05.910Z,5.67
2023-05-13T20:06:35.254Z,5.83
2023-05-13T20:09:03.382Z,8.13
2023-05-13T20:11:31.358Z,6.00
2023-05-13T20:13:59.629Z,6.33
2023-05-13T20:16:28.776Z,6.40
2023-05-13T20:18:56.806Z,6.50
2023-05-13T20:21:24.906Z,6.17
2023-05-13T20:23:54.249Z,6.40
2023-05-13T20:26:22.187Z,6.23
2023-05-13T20:28:51.874Z,7.43
2023-05-13T20:31:19.851Z,6.47
2023-05-13T20:33:47.859Z,7.13
2023-05-13T20:36:15.790Z,6.80
2023-05-13T20:38:43.716Z,6.90
2023-05-13T20:41:13.019Z,7.07
2023-05-13T20:43:41.220Z,6.77
2023-05-13T20:46:09.863Z,7.07
2023-05-13T20:48:37.807Z,7.30
2023-05-13T20:51:08.006Z,7.23
2023-05-13T20:53:36.497Z,7.30
2023-05-13T20:56:04.878Z,8.07
2023-05-13T20:58:36.048Z,7.53
2023-05-13T21:01:04.040Z,7.83
2023-05-13T21:03:33.930Z,7.57
2023-05-13T21:06:01.857Z,8.27
2023-05-13T21:08:29.924Z,7.60
2023-05-13T21:10:57.862Z,7.93
2023-05-13T21:13:26.748Z,7.60
2023-05-13T21:15:57.302Z,7.77
2023-05-13T21:18:25.413Z,8.37
2023-05-13T21:20:53.406Z,7.60
2023-05-13T21:23:21.342Z,7.97
2023-05-13T21:25:49.247Z,7.90
2023-05-13T21:28:18.095Z,8.10
2023-05-13T21:30:46.335Z,8.80
2023-05-13T21:33:16.746Z,8.60
2023-05-13T21:35:44.704Z,7.70
2023-05-13T21:38:12.931Z,8.30
2023-05-13T21:40:40.997Z,8.27
2023-05-13T21:43:08.936Z,9.17
2023-05-13T21:45:36.944Z,9.27
2023-05-13T21:48:05.240Z,8.63
2023-05-13T21:50:34.654Z,8.43
2023-05-13T21:53:02.576Z,8.87
2023-05-13T21:55:34.573Z,9.03
2023-05-13T21:58:02.622Z,8.77
2023-05-13T22:00:31.556Z,8.93
2023-05-13T22:03:00.493Z,9.43
2023-05-13T22:05:28.644Z,7.93
2023-05-13T22:07:59.935Z,8.40
2023-05-13T22:10:27.886Z,8.13
2023-05-13T22:12:55.817Z,9.07
2023-05-13T22:15:23.733Z,9.03
2023-05-13T22:17:51.960Z,9.10
2023-05-13T22:20:20.059Z,8.53
2023-05-13T22:22:50.422Z,8.90
2023-05-13T22:25:19.941Z,9.70
2023-05-13T22:27:48.761Z,9.40
2023-05-13T22:30:16.882Z,9.27
2023-05-13T22:32:44.823Z,9.07
2023-05-13T22:35:12.768Z,9.33
2023-05-13T22:37:40.699Z,9.93
2023-05-13T22:40:10.468Z,9.33
2023-05-13T22:42:39.843Z,9.33
2023-05-13T22:45:08.689Z,9.47
2023-05-13T22:47:37.082Z,9.90
2023-05-13T22:50:05.464Z,9.60
2023-05-13T22:52:33.464Z,9.80
2023-05-13T22:55:01.427Z,9.97
2023-05-13T22:57:29.360Z,11.63
2023-05-13T23:00:01.422Z,10.43
2023-05-13T23:02:29.362Z,11.90
2023-05-13T23:04:57.301Z,14.93
2023-05-13T23:07:25.390Z,14.67
2023-05-13T23:09:53.298Z,16.70
2023-05-13T23:12:22.249Z,16.83
2023-05-13T23:14:50.260Z,16.10
2023-05-13T23:17:19.587Z,16.90
2023-05-13T23:19:47.531Z,17.30
2023-05-13T23:22:15.500Z,17.87
2023-05-13T23:24:43.468Z,17.77
2023-05-13T23:27:11.731Z,18.93
2023-05-13T23:29:39.652Z,19.93
2023-05-13T23:32:08.092Z,19.63
2023-05-13T23:34:37.412Z,18.70
2023-05-13T23:37:05.719Z,19.63
2023-05-13T23:39:33.647Z,18.97
2023-05-13T23:42:01.605Z,19.87
2023-05-13T23:44:29.620Z,18.90
2023-05-13T23:46:58.521Z,19.90
2023-05-13T23:49:26.486Z,19.80
2023-05-13T23:51:55.818Z,19.37
2023-05-13T23:54:23.832Z,18.37
2023-05-13T23:56:52.187Z,19.20
2023-05-13T23:59:20.180Z,18.80
